HBIMN LSZR-LSZR
Flight info
| Callsign | HBIMN |
|---|---|
| Flight time | 0h 14m |
| Altitude | 5000 |
| Route | LSZR |
| Aircraft | DA40/L-V/N |
Departure
| Time | 2026-05-06 18:26 |
|---|---|
| Airport | Sankt Gallen Altenrhein Airport (LSZR) |
Arrival
| Time | 2026-05-06 18:40 |
|---|---|
| Airport | Sankt Gallen Altenrhein Airport (LSZR) |
| Time | Latitude | Longitude | Altitude | Speed | Heading |
|---|---|---|---|---|---|
| 2026-05-06 18:22 | 47.48599 | 9.56878 | 1310 ft | 0 kts | 277° |
| 2026-05-06 18:24 | 47.48600 | 9.56870 | 1310 ft | 5 kts | 270° |
| 2026-05-06 18:24 | 47.48567 | 9.56935 | 1310 ft | 12 kts | 97° |
| 2026-05-06 18:24 | 47.48551 | 9.57066 | 1310 ft | 10 kts | 114° |
| 2026-05-06 18:24 | 47.48473 | 9.57075 | 1310 ft | 12 kts | 188° |
| 2026-05-06 18:25 | 47.48403 | 9.57047 | 1312 ft | 8 kts | 252° |
| 2026-05-06 18:25 | 47.48412 | 9.56939 | 1310 ft | 29 kts | 278° |
| 2026-05-06 18:25 | 47.48506 | 9.56063 | 1439 ft | 81 kts | 279° |
| 2026-05-06 18:25 | 47.48512 | 9.55233 | 1751 ft | 81 kts | 234° |
| 2026-05-06 18:26 | 47.48159 | 9.55021 | 1855 ft | 94 kts | 170° |
| 2026-05-06 18:26 | 47.47749 | 9.56170 | 1995 ft | 116 kts | 101° |
| 2026-05-06 18:26 | 47.47653 | 9.56978 | 2136 ft | 116 kts | 99° |
| 2026-05-06 18:26 | 47.47534 | 9.58138 | 2422 ft | 116 kts | 100° |
| 2026-05-06 18:27 | 47.47410 | 9.59291 | 2786 ft | 110 kts | 103° |
| 2026-05-06 18:27 | 47.47268 | 9.60434 | 3002 ft | 119 kts | 111° |
| 2026-05-06 18:27 | 47.46862 | 9.61562 | 3115 ft | 129 kts | 128° |
| 2026-05-06 18:27 | 47.46326 | 9.62657 | 3173 ft | 135 kts | 136° |
| 2026-05-06 18:28 | 47.45605 | 9.63449 | 3352 ft | 127 kts | 161° |
| 2026-05-06 18:28 | 47.44795 | 9.63752 | 3607 ft | 114 kts | 185° |
| 2026-05-06 18:28 | 47.44007 | 9.63770 | 3731 ft | 116 kts | 186° |
| 2026-05-06 18:28 | 47.43175 | 9.63757 | 3822 ft | 121 kts | 189° |
| 2026-05-06 18:29 | 47.42342 | 9.63637 | 3994 ft | 119 kts | 195° |
| 2026-05-06 18:29 | 47.41563 | 9.63407 | 4212 ft | 114 kts | 202° |
| 2026-05-06 18:29 | 47.40734 | 9.63169 | 4225 ft | 130 kts | 179° |
| 2026-05-06 18:29 | 47.40068 | 9.64071 | 4324 ft | 148 kts | 105° |
| 2026-05-06 18:30 | 47.40414 | 9.65439 | 4412 ft | 145 kts | 39° |
| 2026-05-06 18:30 | 47.41226 | 9.66188 | 4578 ft | 134 kts | 12° |
| 2026-05-06 18:30 | 47.42135 | 9.66372 | 4622 ft | 138 kts | 355° |
| 2026-05-06 18:30 | 47.43122 | 9.66401 | 4592 ft | 137 kts | 341° |
| 2026-05-06 18:31 | 47.43817 | 9.65609 | 4618 ft | 124 kts | 290° |
| 2026-05-06 18:31 | 47.43863 | 9.64373 | 4640 ft | 121 kts | 256° |
| 2026-05-06 18:31 | 47.43591 | 9.63186 | 4696 ft | 118 kts | 244° |
| 2026-05-06 18:31 | 47.42974 | 9.62488 | 4898 ft | 118 kts | 206° |
| 2026-05-06 18:32 | 47.42130 | 9.62206 | 4830 ft | 134 kts | 191° |
| 2026-05-06 18:32 | 47.41170 | 9.62174 | 4702 ft | 140 kts | 185° |
| 2026-05-06 18:32 | 47.40320 | 9.62754 | 4883 ft | 143 kts | 123° |
| 2026-05-06 18:32 | 47.40404 | 9.64230 | 4834 ft | 157 kts | 50° |
| 2026-05-06 18:33 | 47.41309 | 9.64821 | 4772 ft | 145 kts | 346° |
| 2026-05-06 18:33 | 47.42226 | 9.64323 | 4592 ft | 138 kts | 328° |
| 2026-05-06 18:33 | 47.43069 | 9.63683 | 4343 ft | 133 kts | 324° |
| 2026-05-06 18:33 | 47.43807 | 9.62950 | 4163 ft | 126 kts | 315° |
| 2026-05-06 18:34 | 47.44401 | 9.61989 | 3986 ft | 126 kts | 297° |
| 2026-05-06 18:34 | 47.44813 | 9.60881 | 4018 ft | 120 kts | 290° |
| 2026-05-06 18:34 | 47.45081 | 9.59715 | 3886 ft | 121 kts | 282° |
| 2026-05-06 18:34 | 47.45350 | 9.58542 | 3704 ft | 117 kts | 285° |
| 2026-05-06 18:35 | 47.45604 | 9.57432 | 3483 ft | 112 kts | 284° |
| 2026-05-06 18:35 | 47.45873 | 9.56298 | 3204 ft | 126 kts | 285° |
| 2026-05-06 18:35 | 47.46197 | 9.55201 | 3011 ft | 107 kts | 291° |
| 2026-05-06 18:35 | 47.46704 | 9.54422 | 2755 ft | 118 kts | 304° |
| 2026-05-06 18:36 | 47.47082 | 9.53266 | 2492 ft | 119 kts | 280° |
| 2026-05-06 18:36 | 47.47211 | 9.52207 | 2256 ft | 98 kts | 284° |
| 2026-05-06 18:36 | 47.47411 | 9.51117 | 2119 ft | 121 kts | 284° |
| 2026-05-06 18:36 | 47.47661 | 9.49914 | 2155 ft | 121 kts | 295° |
| 2026-05-06 18:37 | 47.48146 | 9.48915 | 2120 ft | 118 kts | 304° |
| 2026-05-06 18:37 | 47.48596 | 9.47916 | 2070 ft | 113 kts | 307° |
| 2026-05-06 18:37 | 47.49263 | 9.47856 | 1968 ft | 112 kts | 52° |
| 2026-05-06 18:37 | 47.49249 | 9.48899 | 1991 ft | 105 kts | 116° |
| 2026-05-06 18:38 | 47.49144 | 9.49942 | 2013 ft | 101 kts | 96° |
| 2026-05-06 18:38 | 47.49040 | 9.50969 | 1950 ft | 99 kts | 100° |
| 2026-05-06 18:38 | 47.48948 | 9.51945 | 1806 ft | 88 kts | 101° |
| 2026-05-06 18:38 | 47.48850 | 9.52830 | 1636 ft | 87 kts | 99° |
| 2026-05-06 18:39 | 47.48758 | 9.53675 | 1524 ft | 87 kts | 99° |
| 2026-05-06 18:39 | 47.48659 | 9.54587 | 1408 ft | 87 kts | 97° |
| 2026-05-06 18:39 | 47.48574 | 9.55406 | 1317 ft | 75 kts | 99° |
| 2026-05-06 18:40 | 47.48438 | 9.56713 | 1309 ft | 50 kts | 100° |
| 2026-05-06 18:40 | 47.48401 | 9.57030 | 1311 ft | 11 kts | 85° |
| 2026-05-06 18:40 | 47.48488 | 9.57079 | 1310 ft | 12 kts | 7° |
| 2026-05-06 18:40 | 47.48557 | 9.57039 | 1310 ft | 14 kts | 279° |
| 2026-05-06 18:41 | 47.48573 | 9.56884 | 1310 ft | 11 kts | 279° |
| 2026-05-06 18:41 | 47.48601 | 9.56859 | 1310 ft | 1 kts | 11° |
| 2026-05-06 18:41 | 47.48602 | 9.56878 | 1310 ft | 5 kts | 219° |
| 2026-05-06 18:41 | 47.48601 | 9.56874 | 1310 ft | 0 kts | 277° |
| 2026-05-06 18:42 | 47.48601 | 9.56873 | 1310 ft | 0 kts | 276° |